sensor_id;sensor_type;location;lat;lon;timestamp;P1;durP1;ratioP1;P2;durP2;ratioP2
13605;SDS011;6874;52.084;5.090;2023-08-12T00:01:49;372.27;;;359.53;;
13605;SDS011;6874;52.084;5.090;2023-08-12T00:04:14;372.00;;;359.13;;
13605;SDS011;6874;52.084;5.090;2023-08-12T00:06:41;376.83;;;363.73;;
13605;SDS011;6874;52.084;5.090;2023-08-12T00:09:07;374.43;;;361.30;;
13605;SDS011;6874;52.084;5.090;2023-08-12T00:11:34;374.23;;;361.27;;
13605;SDS011;6874;52.084;5.090;2023-08-12T00:14:00;356.70;;;344.37;;
13605;SDS011;6874;52.084;5.090;2023-08-12T00:16:25;372.20;;;359.33;;
13605;SDS011;6874;52.084;5.090;2023-08-12T00:18:51;367.67;;;354.83;;
13605;SDS011;6874;52.084;5.090;2023-08-12T00:21:17;345.57;;;333.53;;
13605;SDS011;6874;52.084;5.090;2023-08-12T00:23:42;356.80;;;344.43;;
13605;SDS011;6874;52.084;5.090;2023-08-12T00:26:09;349.63;;;337.37;;
13605;SDS011;6874;52.084;5.090;2023-08-12T00:28:35;348.93;;;336.73;;
13605;SDS011;6874;52.084;5.090;2023-08-12T00:31:01;340.20;;;328.27;;
13605;SDS011;6874;52.084;5.090;2023-08-12T00:33:26;342.67;;;330.77;;
13605;SDS011;6874;52.084;5.090;2023-08-12T00:35:52;345.20;;;333.17;;
13605;SDS011;6874;52.084;5.090;2023-08-12T00:38:18;331.77;;;320.10;;
13605;SDS011;6874;52.084;5.090;2023-08-12T00:40:43;344.20;;;332.03;;
13605;SDS011;6874;52.084;5.090;2023-08-12T00:45:55;292.40;;;282.10;;
13605;SDS011;6874;52.084;5.090;2023-08-12T00:48:21;302.43;;;291.73;;
13605;SDS011;6874;52.084;5.090;2023-08-12T00:50:48;289.67;;;279.47;;
13605;SDS011;6874;52.084;5.090;2023-08-12T00:53:13;277.40;;;267.53;;
13605;SDS011;6874;52.084;5.090;2023-08-12T00:55:41;273.47;;;263.90;;
13605;SDS011;6874;52.084;5.090;2023-08-12T00:58:06;269.00;;;259.47;;
13605;SDS011;6874;52.084;5.090;2023-08-12T01:00:33;272.43;;;262.83;;
13605;SDS011;6874;52.084;5.090;2023-08-12T01:02:58;267.47;;;257.90;;
13605;SDS011;6874;52.084;5.090;2023-08-12T01:05:25;263.97;;;254.63;;
13605;SDS011;6874;52.084;5.090;2023-08-12T01:07:51;259.63;;;250.33;;
13605;SDS011;6874;52.084;5.090;2023-08-12T01:10:18;256.10;;;246.97;;
13605;SDS011;6874;52.084;5.090;2023-08-12T01:15:40;239.37;;;230.93;;
13605;SDS011;6874;52.084;5.090;2023-08-12T01:18:08;239.83;;;231.30;;
13605;SDS011;6874;52.084;5.090;2023-08-12T01:20:35;255.63;;;246.53;;
13605;SDS011;6874;52.084;5.090;2023-08-12T01:23:09;250.87;;;241.97;;
13605;SDS011;6874;52.084;5.090;2023-08-12T01:25:39;241.93;;;233.37;;
13605;SDS011;6874;52.084;5.090;2023-08-12T01:28:05;251.37;;;242.47;;
13605;SDS011;6874;52.084;5.090;2023-08-12T01:30:32;256.70;;;247.67;;
13605;SDS011;6874;52.084;5.090;2023-08-12T01:33:01;240.67;;;232.17;;
13605;SDS011;6874;52.084;5.090;2023-08-12T01:35:47;230.33;;;222.17;;
13605;SDS011;6874;52.084;5.090;2023-08-12T01:38:28;228.70;;;220.63;;
13605;SDS011;6874;52.084;5.090;2023-08-12T01:40:56;239.97;;;231.57;;
13605;SDS011;6874;52.084;5.090;2023-08-12T01:43:23;237.40;;;229.10;;
13605;SDS011;6874;52.084;5.090;2023-08-12T01:45:49;247.80;;;239.20;;
13605;SDS011;6874;52.084;5.090;2023-08-12T01:48:14;235.10;;;226.90;;
13605;SDS011;6874;52.084;5.090;2023-08-12T01:50:40;233.30;;;225.13;;
13605;SDS011;6874;52.084;5.090;2023-08-12T01:53:11;228.77;;;220.87;;
13605;SDS011;6874;52.084;5.090;2023-08-12T01:55:37;243.87;;;235.47;;
13605;SDS011;6874;52.084;5.090;2023-08-12T01:58:02;240.77;;;232.47;;
13605;SDS011;6874;52.084;5.090;2023-08-12T02:00:28;233.53;;;225.43;;
13605;SDS011;6874;52.084;5.090;2023-08-12T02:02:54;234.27;;;226.20;;
13605;SDS011;6874;52.084;5.090;2023-08-12T02:05:19;232.57;;;224.60;;
13605;SDS011;6874;52.084;5.090;2023-08-12T02:07:45;230.27;;;222.40;;
13605;SDS011;6874;52.084;5.090;2023-08-12T02:10:10;235.20;;;227.30;;
13605;SDS011;6874;52.084;5.090;2023-08-12T02:12:36;229.53;;;221.80;;
13605;SDS011;6874;52.084;5.090;2023-08-12T02:15:02;229.27;;;221.57;;
13605;SDS011;6874;52.084;5.090;2023-08-12T02:17:27;234.70;;;226.80;;
13605;SDS011;6874;52.084;5.090;2023-08-12T02:19:53;230.73;;;222.97;;
13605;SDS011;6874;52.084;5.090;2023-08-12T02:22:18;223.10;;;215.57;;
13605;SDS011;6874;52.084;5.090;2023-08-12T02:24:44;240.70;;;232.63;;
13605;SDS011;6874;52.084;5.090;2023-08-12T02:27:10;229.23;;;221.53;;
13605;SDS011;6874;52.084;5.090;2023-08-12T02:29:35;228.17;;;220.50;;
13605;SDS011;6874;52.084;5.090;2023-08-12T02:32:01;233.00;;;225.20;;
13605;SDS011;6874;52.084;5.090;2023-08-12T02:34:26;238.03;;;230.07;;
13605;SDS011;6874;52.084;5.090;2023-08-12T02:36:52;240.13;;;232.00;;
13605;SDS011;6874;52.084;5.090;2023-08-12T02:39:17;236.97;;;228.97;;
13605;SDS011;6874;52.084;5.090;2023-08-12T02:41:43;242.80;;;234.57;;
13605;SDS011;6874;52.084;5.090;2023-08-12T02:44:08;236.20;;;228.27;;
13605;SDS011;6874;52.084;5.090;2023-08-12T02:46:34;245.00;;;236.77;;
13605;SDS011;6874;52.084;5.090;2023-08-12T02:49:00;242.13;;;233.93;;
13605;SDS011;6874;52.084;5.090;2023-08-12T02:51:25;248.23;;;239.83;;
13605;SDS011;6874;52.084;5.090;2023-08-12T02:53:51;250.90;;;242.37;;
13605;SDS011;6874;52.084;5.090;2023-08-12T02:56:16;251.67;;;242.97;;
13605;SDS011;6874;52.084;5.090;2023-08-12T02:58:42;263.13;;;253.80;;
13605;SDS011;6874;52.084;5.090;2023-08-12T03:01:08;244.37;;;235.77;;
13605;SDS011;6874;52.084;5.090;2023-08-12T03:03:33;251.57;;;242.67;;
13605;SDS011;6874;52.084;5.090;2023-08-12T03:05:59;237.83;;;229.33;;
13605;SDS011;6874;52.084;5.090;2023-08-12T03:08:24;230.60;;;222.33;;
13605;SDS011;6874;52.084;5.090;2023-08-12T03:10:50;240.83;;;232.03;;
13605;SDS011;6874;52.084;5.090;2023-08-12T03:13:22;237.73;;;229.00;;
13605;SDS011;6874;52.084;5.090;2023-08-12T03:15:48;233.27;;;224.67;;
13605;SDS011;6874;52.084;5.090;2023-08-12T03:18:13;237.60;;;228.73;;
13605;SDS011;6874;52.084;5.090;2023-08-12T03:20:39;225.93;;;217.47;;
13605;SDS011;6874;52.084;5.090;2023-08-12T03:23:04;222.73;;;214.33;;
13605;SDS011;6874;52.084;5.090;2023-08-12T03:25:30;225.70;;;217.23;;
13605;SDS011;6874;52.084;5.090;2023-08-12T03:27:55;233.43;;;224.60;;
13605;SDS011;6874;52.084;5.090;2023-08-12T03:30:21;226.83;;;218.27;;
13605;SDS011;6874;52.084;5.090;2023-08-12T03:32:46;227.23;;;218.63;;
13605;SDS011;6874;52.084;5.090;2023-08-12T03:35:12;221.20;;;212.63;;
13605;SDS011;6874;52.084;5.090;2023-08-12T03:37:38;218.57;;;209.93;;
13605;SDS011;6874;52.084;5.090;2023-08-12T03:40:03;212.53;;;204.33;;
13605;SDS011;6874;52.084;5.090;2023-08-12T03:42:29;227.00;;;218.20;;
13605;SDS011;6874;52.084;5.090;2023-08-12T03:44:55;203.33;;;195.30;;
13605;SDS011;6874;52.084;5.090;2023-08-12T03:47:20;211.77;;;203.30;;
13605;SDS011;6874;52.084;5.090;2023-08-12T03:49:48;209.03;;;200.77;;
13605;SDS011;6874;52.084;5.090;2023-08-12T03:52:14;208.53;;;200.33;;
13605;SDS011;6874;52.084;5.090;2023-08-12T03:54:40;211.53;;;203.23;;
13605;SDS011;6874;52.084;5.090;2023-08-12T03:57:05;217.53;;;208.93;;
13605;SDS011;6874;52.084;5.090;2023-08-12T03:59:31;202.93;;;194.67;;
13605;SDS011;6874;52.084;5.090;2023-08-12T04:01:56;207.40;;;198.93;;
13605;SDS011;6874;52.084;5.090;2023-08-12T04:04:22;203.60;;;195.33;;
13605;SDS011;6874;52.084;5.090;2023-08-12T04:06:48;193.63;;;185.57;;
13605;SDS011;6874;52.084;5.090;2023-08-12T04:09:17;193.23;;;185.00;;
13605;SDS011;6874;52.084;5.090;2023-08-12T04:11:42;189.67;;;181.53;;
13605;SDS011;6874;52.084;5.090;2023-08-12T04:14:08;177.33;;;169.40;;
13605;SDS011;6874;52.084;5.090;2023-08-12T04:16:34;191.33;;;182.80;;
13605;SDS011;6874;52.084;5.090;2023-08-12T04:18:59;178.63;;;170.53;;
13605;SDS011;6874;52.084;5.090;2023-08-12T04:21:25;168.17;;;160.30;;
13605;SDS011;6874;52.084;5.090;2023-08-12T04:23:54;169.10;;;161.27;;
13605;SDS011;6874;52.084;5.090;2023-08-12T04:26:19;160.37;;;152.77;;
13605;SDS011;6874;52.084;5.090;2023-08-12T04:28:45;153.30;;;145.97;;
13605;SDS011;6874;52.084;5.090;2023-08-12T04:31:10;151.27;;;144.07;;
13605;SDS011;6874;52.084;5.090;2023-08-12T04:33:36;155.33;;;147.97;;
13605;SDS011;6874;52.084;5.090;2023-08-12T04:36:01;143.47;;;136.73;;
13605;SDS011;6874;52.084;5.090;2023-08-12T04:38:27;149.43;;;142.23;;
13605;SDS011;6874;52.084;5.090;2023-08-12T04:40:53;143.40;;;136.77;;
13605;SDS011;6874;52.084;5.090;2023-08-12T04:43:21;134.33;;;128.10;;
13605;SDS011;6874;52.084;5.090;2023-08-12T04:45:47;145.97;;;139.13;;
13605;SDS011;6874;52.084;5.090;2023-08-12T04:48:13;146.87;;;140.00;;
13605;SDS011;6874;52.084;5.090;2023-08-12T04:50:38;146.40;;;139.57;;
13605;SDS011;6874;52.084;5.090;2023-08-12T04:53:04;147.10;;;140.63;;
13605;SDS011;6874;52.084;5.090;2023-08-12T04:55:30;140.47;;;134.47;;
13605;SDS011;6874;52.084;5.090;2023-08-12T04:57:56;145.43;;;139.30;;
13605;SDS011;6874;52.084;5.090;2023-08-12T05:00:22;144.07;;;138.17;;
13605;SDS011;6874;52.084;5.090;2023-08-12T05:02:48;146.80;;;140.87;;
13605;SDS011;6874;52.084;5.090;2023-08-12T05:05:14;144.23;;;138.37;;
13605;SDS011;6874;52.084;5.090;2023-08-12T05:07:40;158.20;;;151.90;;
13605;SDS011;6874;52.084;5.090;2023-08-12T05:10:05;140.53;;;134.87;;
13605;SDS011;6874;52.084;5.090;2023-08-12T05:12:31;142.63;;;136.93;;
13605;SDS011;6874;52.084;5.090;2023-08-12T05:14:57;143.50;;;137.83;;
13605;SDS011;6874;52.084;5.090;2023-08-12T05:17:22;144.10;;;138.23;;
13605;SDS011;6874;52.084;5.090;2023-08-12T05:19:48;147.30;;;141.30;;
13605;SDS011;6874;52.084;5.090;2023-08-12T05:22:14;143.30;;;137.57;;
13605;SDS011;6874;52.084;5.090;2023-08-12T05:24:40;152.93;;;146.83;;
13605;SDS011;6874;52.084;5.090;2023-08-12T05:27:05;148.93;;;143.00;;
13605;SDS011;6874;52.084;5.090;2023-08-12T05:29:31;151.07;;;145.10;;
13605;SDS011;6874;52.084;5.090;2023-08-12T05:31:57;148.97;;;143.17;;
13605;SDS011;6874;52.084;5.090;2023-08-12T05:34:22;149.50;;;143.67;;
13605;SDS011;6874;52.084;5.090;2023-08-12T05:36:48;157.47;;;151.50;;
13605;SDS011;6874;52.084;5.090;2023-08-12T05:39:13;162.57;;;156.47;;
13605;SDS011;6874;52.084;5.090;2023-08-12T05:41:40;180.03;;;173.43;;
13605;SDS011;6874;52.084;5.090;2023-08-12T05:44:06;175.47;;;169.00;;
13605;SDS011;6874;52.084;5.090;2023-08-12T05:46:32;179.87;;;173.10;;
13605;SDS011;6874;52.084;5.090;2023-08-12T05:48:57;176.10;;;169.60;;
13605;SDS011;6874;52.084;5.090;2023-08-12T05:51:23;175.57;;;169.03;;
13605;SDS011;6874;52.084;5.090;2023-08-12T05:53:49;182.67;;;175.77;;
13605;SDS011;6874;52.084;5.090;2023-08-12T05:56:15;189.53;;;182.63;;
13605;SDS011;6874;52.084;5.090;2023-08-12T05:58:40;189.67;;;182.73;;
13605;SDS011;6874;52.084;5.090;2023-08-12T06:01:06;213.67;;;205.97;;
13605;SDS011;6874;52.084;5.090;2023-08-12T06:03:32;247.27;;;238.37;;
13605;SDS011;6874;52.084;5.090;2023-08-12T06:05:57;270.87;;;261.10;;
13605;SDS011;6874;52.084;5.090;2023-08-12T06:08:23;277.10;;;267.17;;
13605;SDS011;6874;52.084;5.090;2023-08-12T06:10:48;280.97;;;270.83;;
13605;SDS011;6874;52.084;5.090;2023-08-12T06:13:14;293.03;;;282.40;;
13605;SDS011;6874;52.084;5.090;2023-08-12T06:15:39;294.27;;;283.60;;
13605;SDS011;6874;52.084;5.090;2023-08-12T06:18:05;292.60;;;282.00;;
13605;SDS011;6874;52.084;5.090;2023-08-12T06:20:31;282.67;;;272.53;;
13605;SDS011;6874;52.084;5.090;2023-08-12T06:22:56;293.20;;;282.57;;
13605;SDS011;6874;52.084;5.090;2023-08-12T06:25:22;282.17;;;271.83;;
13605;SDS011;6874;52.084;5.090;2023-08-12T06:27:47;289.20;;;278.67;;
13605;SDS011;6874;52.084;5.090;2023-08-12T06:30:13;284.87;;;274.63;;
13605;SDS011;6874;52.084;5.090;2023-08-12T06:32:39;263.80;;;254.33;;
13605;SDS011;6874;52.084;5.090;2023-08-12T06:35:05;270.77;;;260.93;;
13605;SDS011;6874;52.084;5.090;2023-08-12T06:37:31;263.33;;;253.77;;
13605;SDS011;6874;52.084;5.090;2023-08-12T06:39:57;274.40;;;264.50;;
13605;SDS011;6874;52.084;5.090;2023-08-12T06:42:22;255.17;;;246.00;;
13605;SDS011;6874;52.084;5.090;2023-08-12T06:44:56;261.20;;;251.73;;
13605;SDS011;6874;52.084;5.090;2023-08-12T06:47:23;263.83;;;254.20;;
13605;SDS011;6874;52.084;5.090;2023-08-12T06:49:49;269.07;;;259.33;;
13605;SDS011;6874;52.084;5.090;2023-08-12T06:52:14;268.97;;;259.33;;
13605;SDS011;6874;52.084;5.090;2023-08-12T06:54:41;264.80;;;255.20;;
13605;SDS011;6874;52.084;5.090;2023-08-12T06:57:06;242.70;;;233.90;;
13605;SDS011;6874;52.084;5.090;2023-08-12T06:59:32;244.53;;;235.73;;
13605;SDS011;6874;52.084;5.090;2023-08-12T07:01:57;241.10;;;232.43;;
13605;SDS011;6874;52.084;5.090;2023-08-12T07:04:23;221.63;;;213.60;;
13605;SDS011;6874;52.084;5.090;2023-08-12T07:06:49;226.90;;;218.60;;
13605;SDS011;6874;52.084;5.090;2023-08-12T07:09:14;223.83;;;215.80;;
13605;SDS011;6874;52.084;5.090;2023-08-12T07:11:40;228.80;;;220.53;;
13605;SDS011;6874;52.084;5.090;2023-08-12T07:14:06;226.07;;;217.90;;
13605;SDS011;6874;52.084;5.090;2023-08-12T07:16:31;212.77;;;205.10;;
13605;SDS011;6874;52.084;5.090;2023-08-12T07:18:58;212.83;;;205.07;;
13605;SDS011;6874;52.084;5.090;2023-08-12T07:21:23;220.70;;;212.67;;
13605;SDS011;6874;52.084;5.090;2023-08-12T07:23:49;212.77;;;205.10;;
13605;SDS011;6874;52.084;5.090;2023-08-12T07:26:14;206.20;;;198.73;;
13605;SDS011;6874;52.084;5.090;2023-08-12T07:28:40;202.77;;;195.47;;
13605;SDS011;6874;52.084;5.090;2023-08-12T07:31:06;197.37;;;190.20;;
13605;SDS011;6874;52.084;5.090;2023-08-12T07:33:32;196.20;;;189.10;;
13605;SDS011;6874;52.084;5.090;2023-08-12T07:35:57;200.40;;;193.20;;
13605;SDS011;6874;52.084;5.090;2023-08-12T07:38:23;201.23;;;193.90;;
13605;SDS011;6874;52.084;5.090;2023-08-12T07:40:49;203.60;;;196.27;;
13605;SDS011;6874;52.084;5.090;2023-08-12T07:43:15;194.80;;;187.77;;
13605;SDS011;6874;52.084;5.090;2023-08-12T07:45:41;194.73;;;187.60;;
13605;SDS011;6874;52.084;5.090;2023-08-12T07:48:06;188.50;;;181.70;;
13605;SDS011;6874;52.084;5.090;2023-08-12T07:50:32;179.37;;;172.87;;
13605;SDS011;6874;52.084;5.090;2023-08-12T07:52:58;171.80;;;165.60;;
13605;SDS011;6874;52.084;5.090;2023-08-12T07:55:23;169.07;;;162.87;;
13605;SDS011;6874;52.084;5.090;2023-08-12T07:57:49;152.20;;;146.63;;
13605;SDS011;6874;52.084;5.090;2023-08-12T08:00:14;135.83;;;130.77;;
13605;SDS011;6874;52.084;5.090;2023-08-12T08:02:40;122.00;;;117.20;;
13605;SDS011;6874;52.084;5.090;2023-08-12T08:05:06;114.77;;;110.00;;
13605;SDS011;6874;52.084;5.090;2023-08-12T08:07:32;119.97;;;114.97;;
13605;SDS011;6874;52.084;5.090;2023-08-12T08:09:58;120.93;;;115.83;;
13605;SDS011;6874;52.084;5.090;2023-08-12T08:12:25;122.27;;;117.20;;
13605;SDS011;6874;52.084;5.090;2023-08-12T08:14:50;126.80;;;121.60;;
13605;SDS011;6874;52.084;5.090;2023-08-12T08:17:16;124.17;;;118.93;;
13605;SDS011;6874;52.084;5.090;2023-08-12T08:19:42;116.27;;;111.40;;
13605;SDS011;6874;52.084;5.090;2023-08-12T08:22:08;123.90;;;118.63;;
13605;SDS011;6874;52.084;5.090;2023-08-12T08:24:33;164.90;;;158.13;;
13605;SDS011;6874;52.084;5.090;2023-08-12T08:26:59;196.70;;;188.67;;
13605;SDS011;6874;52.084;5.090;2023-08-12T08:29:24;198.53;;;190.67;;
13605;SDS011;6874;52.084;5.090;2023-08-12T08:31:50;193.30;;;185.80;;
13605;SDS011;6874;52.084;5.090;2023-08-12T08:34:16;198.60;;;190.93;;
13605;SDS011;6874;52.084;5.090;2023-08-12T08:36:41;203.00;;;195.30;;
13605;SDS011;6874;52.084;5.090;2023-08-12T08:39:08;204.40;;;196.53;;
13605;SDS011;6874;52.084;5.090;2023-08-12T08:41:35;184.90;;;177.90;;
13605;SDS011;6874;52.084;5.090;2023-08-12T08:44:08;181.03;;;173.93;;
13605;SDS011;6874;52.084;5.090;2023-08-12T08:46:45;159.77;;;153.63;;
13605;SDS011;6874;52.084;5.090;2023-08-12T08:49:11;174.63;;;168.03;;
13605;SDS011;6874;52.084;5.090;2023-08-12T08:51:39;175.77;;;168.97;;
13605;SDS011;6874;52.084;5.090;2023-08-12T08:54:05;184.83;;;177.60;;
13605;SDS011;6874;52.084;5.090;2023-08-12T08:56:31;169.40;;;162.70;;
13605;SDS011;6874;52.084;5.090;2023-08-12T08:58:57;155.27;;;149.27;;
13605;SDS011;6874;52.084;5.090;2023-08-12T09:01:23;173.23;;;166.53;;
13605;SDS011;6874;52.084;5.090;2023-08-12T09:03:52;192.87;;;185.50;;
13605;SDS011;6874;52.084;5.090;2023-08-12T09:06:20;194.50;;;187.13;;
13605;SDS011;6874;52.084;5.090;2023-08-12T09:08:46;204.43;;;196.83;;
13605;SDS011;6874;52.084;5.090;2023-08-12T09:11:13;204.73;;;197.13;;
13605;SDS011;6874;52.084;5.090;2023-08-12T09:13:41;214.33;;;206.57;;
13605;SDS011;6874;52.084;5.090;2023-08-12T09:16:07;212.57;;;204.83;;
13605;SDS011;6874;52.084;5.090;2023-08-12T09:18:34;216.27;;;208.43;;
13605;SDS011;6874;52.084;5.090;2023-08-12T09:21:00;221.67;;;213.77;;
13605;SDS011;6874;52.084;5.090;2023-08-12T09:23:26;224.67;;;216.80;;
13605;SDS011;6874;52.084;5.090;2023-08-12T09:25:52;243.43;;;235.00;;
13605;SDS011;6874;52.084;5.090;2023-08-12T09:28:18;251.87;;;243.37;;
13605;SDS011;6874;52.084;5.090;2023-08-12T09:30:49;264.13;;;255.03;;
13605;SDS011;6874;52.084;5.090;2023-08-12T09:33:16;281.67;;;271.90;;
13605;SDS011;6874;52.084;5.090;2023-08-12T09:35:51;297.07;;;286.67;;
13605;SDS011;6874;52.084;5.090;2023-08-12T09:38:16;317.40;;;306.43;;
13605;SDS011;6874;52.084;5.090;2023-08-12T09:40:42;312.93;;;302.20;;
13605;SDS011;6874;52.084;5.090;2023-08-12T09:43:11;318.77;;;307.77;;
13605;SDS011;6874;52.084;5.090;2023-08-12T09:45:36;354.60;;;341.97;;
13605;SDS011;6874;52.084;5.090;2023-08-12T09:48:02;336.93;;;324.87;;
13605;SDS011;6874;52.084;5.090;2023-08-12T09:50:28;309.83;;;298.97;;
13605;SDS011;6874;52.084;5.090;2023-08-12T09:52:54;341.00;;;328.97;;
13605;SDS011;6874;52.084;5.090;2023-08-12T09:55:21;319.27;;;307.80;;
13605;SDS011;6874;52.084;5.090;2023-08-12T09:57:50;318.87;;;307.43;;
13605;SDS011;6874;52.084;5.090;2023-08-12T10:00:21;326.03;;;314.30;;
13605;SDS011;6874;52.084;5.090;2023-08-12T10:02:48;334.13;;;322.40;;
13605;SDS011;6874;52.084;5.090;2023-08-12T10:05:21;364.87;;;351.20;;
13605;SDS011;6874;52.084;5.090;2023-08-12T10:07:51;293.93;;;281.67;;
13605;SDS011;6874;52.084;5.090;2023-08-12T10:10:17;294.13;;;282.73;;
13605;SDS011;6874;52.084;5.090;2023-08-12T10:12:43;380.33;;;366.20;;
13605;SDS011;6874;52.084;5.090;2023-08-12T10:15:09;397.40;;;381.90;;
13605;SDS011;6874;52.084;5.090;2023-08-12T10:17:36;389.63;;;374.17;;
13605;SDS011;6874;52.084;5.090;2023-08-12T10:20:06;416.57;;;399.47;;
13605;SDS011;6874;52.084;5.090;2023-08-12T10:22:34;455.63;;;435.90;;
13605;SDS011;6874;52.084;5.090;2023-08-12T10:25:04;487.73;;;462.40;;
13605;SDS011;6874;52.084;5.090;2023-08-12T10:27:33;553.10;;;524.23;;
13605;SDS011;6874;52.084;5.090;2023-08-12T10:29:58;556.60;;;527.67;;
13605;SDS011;6874;52.084;5.090;2023-08-12T10:32:27;554.00;;;527.17;;
13605;SDS011;6874;52.084;5.090;2023-08-12T10:34:56;503.60;;;480.93;;
13605;SDS011;6874;52.084;5.090;2023-08-12T10:37:26;498.80;;;476.00;;
13605;SDS011;6874;52.084;5.090;2023-08-12T10:39:52;473.00;;;451.17;;
13605;SDS011;6874;52.084;5.090;2023-08-12T10:45:11;442.37;;;422.30;;
13605;SDS011;6874;52.084;5.090;2023-08-12T10:47:41;469.87;;;448.00;;
13605;SDS011;6874;52.084;5.090;2023-08-12T10:50:22;468.10;;;446.87;;
13605;SDS011;6874;52.084;5.090;2023-08-12T10:52:53;430.23;;;411.93;;
13605;SDS011;6874;52.084;5.090;2023-08-12T10:55:20;383.10;;;367.33;;
13605;SDS011;6874;52.084;5.090;2023-08-12T10:57:48;355.93;;;341.93;;
13605;SDS011;6874;52.084;5.090;2023-08-12T11:00:15;304.67;;;293.40;;
13605;SDS011;6874;52.084;5.090;2023-08-12T11:02:51;222.90;;;215.43;;
13605;SDS011;6874;52.084;5.090;2023-08-12T11:05:21;178.47;;;172.30;;
13605;SDS011;6874;52.084;5.090;2023-08-12T11:07:48;243.83;;;235.00;;
13605;SDS011;6874;52.084;5.090;2023-08-12T11:10:23;241.87;;;233.40;;
13605;SDS011;6874;52.084;5.090;2023-08-12T11:15:36;214.07;;;206.83;;
13605;SDS011;6874;52.084;5.090;2023-08-12T11:18:07;219.63;;;212.17;;
13605;SDS011;6874;52.084;5.090;2023-08-12T11:20:36;219.17;;;211.77;;
13605;SDS011;6874;52.084;5.090;2023-08-12T11:23:03;189.67;;;183.13;;
13605;SDS011;6874;52.084;5.090;2023-08-12T11:25:30;185.43;;;178.73;;
13605;SDS011;6874;52.084;5.090;2023-08-12T11:27:57;236.17;;;227.33;;
13605;SDS011;6874;52.084;5.090;2023-08-12T11:30:23;255.97;;;246.43;;
13605;SDS011;6874;52.084;5.090;2023-08-12T11:32:52;254.00;;;244.67;;
13605;SDS011;6874;52.084;5.090;2023-08-12T11:35:19;273.33;;;263.17;;
13605;SDS011;6874;52.084;5.090;2023-08-12T11:37:46;296.17;;;284.83;;
13605;SDS011;6874;52.084;5.090;2023-08-12T11:40:13;374.37;;;359.17;;
13605;SDS011;6874;52.084;5.090;2023-08-12T11:42:42;449.13;;;429.97;;
13605;SDS011;6874;52.084;5.090;2023-08-12T11:45:09;467.07;;;447.03;;
13605;SDS011;6874;52.084;5.090;2023-08-12T11:47:36;418.60;;;400.90;;
13605;SDS011;6874;52.084;5.090;2023-08-12T11:50:03;372.80;;;357.27;;
13605;SDS011;6874;52.084;5.090;2023-08-12T11:52:30;323.93;;;310.60;;
13605;SDS011;6874;52.084;5.090;2023-08-12T11:54:56;309.73;;;296.97;;
13605;SDS011;6874;52.084;5.090;2023-08-12T11:57:22;283.10;;;271.70;;
13605;SDS011;6874;52.084;5.090;2023-08-12T11:59:49;255.67;;;245.63;;
13605;SDS011;6874;52.084;5.090;2023-08-12T12:02:15;268.67;;;259.10;;
13605;SDS011;6874;52.084;5.090;2023-08-12T12:04:44;272.83;;;263.20;;
13605;SDS011;6874;52.084;5.090;2023-08-12T12:07:19;270.03;;;260.47;;
13605;SDS011;6874;52.084;5.090;2023-08-12T12:09:46;279.77;;;269.80;;
13605;SDS011;6874;52.084;5.090;2023-08-12T12:12:12;299.03;;;288.37;;
13605;SDS011;6874;52.084;5.090;2023-08-12T12:14:37;309.43;;;298.10;;
13605;SDS011;6874;52.084;5.090;2023-08-12T12:17:06;344.30;;;331.20;;
13605;SDS011;6874;52.084;5.090;2023-08-12T12:19:34;356.97;;;343.20;;
13605;SDS011;6874;52.084;5.090;2023-08-12T12:22:01;380.17;;;365.00;;
13605;SDS011;6874;52.084;5.090;2023-08-12T12:24:29;381.00;;;365.63;;
13605;SDS011;6874;52.084;5.090;2023-08-12T12:26:55;383.33;;;367.90;;
13605;SDS011;6874;52.084;5.090;2023-08-12T12:29:21;391.50;;;375.57;;
13605;SDS011;6874;52.084;5.090;2023-08-12T12:31:47;384.33;;;368.83;;
13605;SDS011;6874;52.084;5.090;2023-08-12T12:34:13;392.77;;;376.90;;
13605;SDS011;6874;52.084;5.090;2023-08-12T12:36:39;387.30;;;371.70;;
13605;SDS011;6874;52.084;5.090;2023-08-12T12:39:05;401.93;;;385.63;;
13605;SDS011;6874;52.084;5.090;2023-08-12T12:41:32;395.93;;;379.83;;
13605;SDS011;6874;52.084;5.090;2023-08-12T12:43:59;381.43;;;366.13;;
13605;SDS011;6874;52.084;5.090;2023-08-12T12:46:26;384.10;;;368.80;;
13605;SDS011;6874;52.084;5.090;2023-08-12T12:48:52;371.47;;;356.17;;
13605;SDS011;6874;52.084;5.090;2023-08-12T12:51:18;224.27;;;216.33;;
13605;SDS011;6874;52.084;5.090;2023-08-12T12:53:43;462.07;;;443.13;;
13605;SDS011;6874;52.084;5.090;2023-08-12T12:56:09;214.27;;;206.77;;
13605;SDS011;6874;52.084;5.090;2023-08-12T12:58:35;190.50;;;184.07;;
13605;SDS011;6874;52.084;5.090;2023-08-12T13:01:01;218.50;;;210.67;;
13605;SDS011;6874;52.084;5.090;2023-08-12T13:03:29;375.97;;;360.23;;
13605;SDS011;6874;52.084;5.090;2023-08-12T13:05:55;272.13;;;262.17;;
13605;SDS011;6874;52.084;5.090;2023-08-12T13:08:21;212.37;;;204.97;;
13605;SDS011;6874;52.084;5.090;2023-08-12T13:10:47;192.67;;;186.10;;
13605;SDS011;6874;52.084;5.090;2023-08-12T13:13:16;159.30;;;153.87;;
13605;SDS011;6874;52.084;5.090;2023-08-12T13:15:42;161.63;;;156.13;;
13605;SDS011;6874;52.084;5.090;2023-08-12T13:18:09;205.70;;;199.00;;
13605;SDS011;6874;52.084;5.090;2023-08-12T13:20:35;258.73;;;249.87;;
13605;SDS011;6874;52.084;5.090;2023-08-12T13:23:01;326.77;;;315.00;;
13605;SDS011;6874;52.084;5.090;2023-08-12T13:25:30;367.93;;;353.83;;
13605;SDS011;6874;52.084;5.090;2023-08-12T13:27:58;371.47;;;356.27;;
13605;SDS011;6874;52.084;5.090;2023-08-12T13:30:28;368.27;;;353.13;;
13605;SDS011;6874;52.084;5.090;2023-08-12T13:32:54;347.70;;;333.57;;
13605;SDS011;6874;52.084;5.090;2023-08-12T13:35:20;352.87;;;338.60;;
13605;SDS011;6874;52.084;5.090;2023-08-12T13:37:46;339.77;;;326.20;;
13605;SDS011;6874;52.084;5.090;2023-08-12T13:40:12;319.60;;;306.57;;
13605;SDS011;6874;52.084;5.090;2023-08-12T13:42:40;319.23;;;305.67;;
13605;SDS011;6874;52.084;5.090;2023-08-12T13:45:06;375.50;;;359.23;;
13605;SDS011;6874;52.084;5.090;2023-08-12T13:47:33;379.57;;;363.07;;
13605;SDS011;6874;52.084;5.090;2023-08-12T13:49:59;394.20;;;377.37;;
13605;SDS011;6874;52.084;5.090;2023-08-12T13:52:24;347.37;;;332.90;;
13605;SDS011;6874;52.084;5.090;2023-08-12T13:54:50;295.67;;;284.03;;
13605;SDS011;6874;52.084;5.090;2023-08-12T13:57:15;268.17;;;258.47;;
13605;SDS011;6874;52.084;5.090;2023-08-12T13:59:41;249.30;;;240.47;;
13605;SDS011;6874;52.084;5.090;2023-08-12T14:02:09;237.20;;;228.77;;
13605;SDS011;6874;52.084;5.090;2023-08-12T14:04:35;217.50;;;209.93;;
13605;SDS011;6874;52.084;5.090;2023-08-12T14:07:02;222.23;;;214.67;;
13605;SDS011;6874;52.084;5.090;2023-08-12T14:09:28;243.50;;;235.40;;
13605;SDS011;6874;52.084;5.090;2023-08-12T14:11:54;252.07;;;243.40;;
13605;SDS011;6874;52.084;5.090;2023-08-12T14:14:19;255.93;;;247.17;;
13605;SDS011;6874;52.084;5.090;2023-08-12T14:16:45;278.67;;;268.83;;